sensor_id;sensor_type;location;lat;lon;timestamp;P1;durP1;ratioP1;P2;durP2;ratioP2
47539;SDS011;33280;52.152;21.052;2022-11-27T00:01:32;59.20;;;20.10;;
47539;SDS011;33280;52.152;21.052;2022-11-27T00:04:00;51.37;;;19.20;;
47539;SDS011;33280;52.152;21.052;2022-11-27T00:06:28;49.20;;;19.17;;
47539;SDS011;33280;52.152;21.052;2022-11-27T00:08:56;53.17;;;19.90;;
47539;SDS011;33280;52.152;21.052;2022-11-27T00:11:25;57.57;;;19.83;;
47539;SDS011;33280;52.152;21.052;2022-11-27T00:13:53;53.67;;;20.60;;
47539;SDS011;33280;52.152;21.052;2022-11-27T00:16:21;53.20;;;19.53;;
47539;SDS011;33280;52.152;21.052;2022-11-27T00:18:49;54.37;;;20.40;;
47539;SDS011;33280;52.152;21.052;2022-11-27T00:21:20;58.37;;;20.30;;
47539;SDS011;33280;52.152;21.052;2022-11-27T00:23:52;57.97;;;20.17;;
47539;SDS011;33280;52.152;21.052;2022-11-27T00:26:20;63.30;;;22.57;;
47539;SDS011;33280;52.152;21.052;2022-11-27T00:28:48;64.03;;;21.80;;
47539;SDS011;33280;52.152;21.052;2022-11-27T00:31:18;60.97;;;21.20;;
47539;SDS011;33280;52.152;21.052;2022-11-27T00:33:47;54.70;;;20.03;;
47539;SDS011;33280;52.152;21.052;2022-11-27T00:36:15;52.83;;;19.80;;
47539;SDS011;33280;52.152;21.052;2022-11-27T00:38:41;56.87;;;20.23;;
47539;SDS011;33280;52.152;21.052;2022-11-27T00:41:19;58.23;;;21.07;;
47539;SDS011;33280;52.152;21.052;2022-11-27T00:43:47;63.47;;;22.43;;
47539;SDS011;33280;52.152;21.052;2022-11-27T00:46:15;66.57;;;23.33;;
47539;SDS011;33280;52.152;21.052;2022-11-27T00:48:43;67.23;;;22.53;;
47539;SDS011;33280;52.152;21.052;2022-11-27T00:51:13;63.30;;;22.07;;
47539;SDS011;33280;52.152;21.052;2022-11-27T00:53:42;68.00;;;24.20;;
47539;SDS011;33280;52.152;21.052;2022-11-27T00:56:13;74.23;;;24.83;;
47539;SDS011;33280;52.152;21.052;2022-11-27T00:58:46;63.47;;;23.30;;
47539;SDS011;33280;52.152;21.052;2022-11-27T01:01:19;64.90;;;23.53;;
47539;SDS011;33280;52.152;21.052;2022-11-27T01:03:54;70.40;;;25.47;;
47539;SDS011;33280;52.152;21.052;2022-11-27T01:06:22;69.20;;;24.60;;
47539;SDS011;33280;52.152;21.052;2022-11-27T01:08:50;69.50;;;25.33;;
47539;SDS011;33280;52.152;21.052;2022-11-27T01:11:18;65.57;;;23.87;;
47539;SDS011;33280;52.152;21.052;2022-11-27T01:13:47;68.57;;;24.77;;
47539;SDS011;33280;52.152;21.052;2022-11-27T01:16:16;69.10;;;23.73;;
47539;SDS011;33280;52.152;21.052;2022-11-27T01:18:49;61.77;;;23.37;;
47539;SDS011;33280;52.152;21.052;2022-11-27T01:21:17;64.23;;;23.20;;
47539;SDS011;33280;52.152;21.052;2022-11-27T01:23:46;61.83;;;23.07;;
47539;SDS011;33280;52.152;21.052;2022-11-27T01:26:14;66.63;;;24.57;;
47539;SDS011;33280;52.152;21.052;2022-11-27T01:28:43;65.93;;;24.87;;
47539;SDS011;33280;52.152;21.052;2022-11-27T01:31:16;73.27;;;25.13;;
47539;SDS011;33280;52.152;21.052;2022-11-27T01:33:45;71.60;;;24.83;;
47539;SDS011;33280;52.152;21.052;2022-11-27T01:36:13;63.80;;;23.97;;
47539;SDS011;33280;52.152;21.052;2022-11-27T01:38:41;68.53;;;24.70;;
47539;SDS011;33280;52.152;21.052;2022-11-27T01:41:18;70.70;;;24.83;;
47539;SDS011;33280;52.152;21.052;2022-11-27T01:43:50;71.50;;;25.10;;
47539;SDS011;33280;52.152;21.052;2022-11-27T01:48:46;73.90;;;25.57;;
47539;SDS011;33280;52.152;21.052;2022-11-27T01:51:13;75.53;;;25.63;;
47539;SDS011;33280;52.152;21.052;2022-11-27T01:53:41;70.77;;;26.03;;
47539;SDS011;33280;52.152;21.052;2022-11-27T01:56:08;79.43;;;27.07;;
47539;SDS011;33280;52.152;21.052;2022-11-27T01:58:36;77.60;;;27.17;;
47539;SDS011;33280;52.152;21.052;2022-11-27T02:01:04;69.50;;;25.43;;
47539;SDS011;33280;52.152;21.052;2022-11-27T02:03:31;68.70;;;25.83;;
47539;SDS011;33280;52.152;21.052;2022-11-27T02:05:58;73.93;;;26.57;;
47539;SDS011;33280;52.152;21.052;2022-11-27T02:08:25;74.63;;;25.53;;
47539;SDS011;33280;52.152;21.052;2022-11-27T02:10:53;69.17;;;25.00;;
47539;SDS011;33280;52.152;21.052;2022-11-27T02:13:37;69.20;;;24.77;;
47539;SDS011;33280;52.152;21.052;2022-11-27T02:21:35;71.10;;;25.00;;
47539;SDS011;33280;52.152;21.052;2022-11-27T02:29:25;67.07;;;25.33;;
47539;SDS011;33280;52.152;21.052;2022-11-27T02:31:56;65.30;;;25.23;;
47539;SDS011;33280;52.152;21.052;2022-11-27T02:34:34;66.13;;;24.10;;
47539;SDS011;33280;52.152;21.052;2022-11-27T02:37:12;75.33;;;26.73;;
47539;SDS011;33280;52.152;21.052;2022-11-27T02:40:01;76.47;;;26.63;;
47539;SDS011;33280;52.152;21.052;2022-11-27T02:42:35;74.10;;;26.60;;
47539;SDS011;33280;52.152;21.052;2022-11-27T02:45:08;73.17;;;27.37;;
47539;SDS011;33280;52.152;21.052;2022-11-27T02:47:43;78.37;;;27.60;;
47539;SDS011;33280;52.152;21.052;2022-11-27T02:50:14;70.40;;;26.53;;
47539;SDS011;33280;52.152;21.052;2022-11-27T02:52:44;68.77;;;26.90;;
47539;SDS011;33280;52.152;21.052;2022-11-27T02:55:15;74.33;;;26.20;;
47539;SDS011;33280;52.152;21.052;2022-11-27T02:57:45;70.30;;;26.17;;
47539;SDS011;33280;52.152;21.052;2022-11-27T03:00:14;86.80;;;27.80;;
47539;SDS011;33280;52.152;21.052;2022-11-27T03:02:43;76.47;;;26.70;;
47539;SDS011;33280;52.152;21.052;2022-11-27T03:05:15;74.33;;;26.23;;
47539;SDS011;33280;52.152;21.052;2022-11-27T03:07:57;68.90;;;26.77;;
47539;SDS011;33280;52.152;21.052;2022-11-27T03:10:34;71.97;;;27.10;;
47539;SDS011;33280;52.152;21.052;2022-11-27T03:13:26;71.17;;;26.30;;
47539;SDS011;33280;52.152;21.052;2022-11-27T03:21:54;71.57;;;25.63;;
47539;SDS011;33280;52.152;21.052;2022-11-27T03:24:23;73.33;;;26.63;;
47539;SDS011;33280;52.152;21.052;2022-11-27T03:26:52;74.57;;;26.80;;
47539;SDS011;33280;52.152;21.052;2022-11-27T03:29:20;72.77;;;26.33;;
47539;SDS011;33280;52.152;21.052;2022-11-27T03:31:51;73.70;;;25.90;;
47539;SDS011;33280;52.152;21.052;2022-11-27T03:34:18;76.80;;;26.97;;
47539;SDS011;33280;52.152;21.052;2022-11-27T03:36:45;74.93;;;27.83;;
47539;SDS011;33280;52.152;21.052;2022-11-27T03:39:12;76.17;;;26.47;;
47539;SDS011;33280;52.152;21.052;2022-11-27T03:41:49;79.63;;;27.80;;
47539;SDS011;33280;52.152;21.052;2022-11-27T03:58:34;77.23;;;27.33;;
47539;SDS011;33280;52.152;21.052;2022-11-27T04:01:12;77.00;;;27.50;;
47539;SDS011;33280;52.152;21.052;2022-11-27T04:03:42;84.73;;;27.53;;
47539;SDS011;33280;52.152;21.052;2022-11-27T04:06:09;82.50;;;27.57;;
47539;SDS011;33280;52.152;21.052;2022-11-27T04:08:37;87.10;;;27.67;;
47539;SDS011;33280;52.152;21.052;2022-11-27T04:11:05;81.33;;;28.27;;
47539;SDS011;33280;52.152;21.052;2022-11-27T04:13:33;75.07;;;25.10;;
47539;SDS011;33280;52.152;21.052;2022-11-27T04:16:00;79.87;;;27.23;;
47539;SDS011;33280;52.152;21.052;2022-11-27T04:18:28;75.70;;;27.60;;
47539;SDS011;33280;52.152;21.052;2022-11-27T04:20:55;81.00;;;26.97;;
47539;SDS011;33280;52.152;21.052;2022-11-27T04:23:22;78.03;;;27.13;;
47539;SDS011;33280;52.152;21.052;2022-11-27T04:25:49;80.00;;;26.67;;
47539;SDS011;33280;52.152;21.052;2022-11-27T04:28:16;70.57;;;25.27;;
47539;SDS011;33280;52.152;21.052;2022-11-27T04:30:44;76.53;;;26.13;;
47539;SDS011;33280;52.152;21.052;2022-11-27T04:33:15;80.07;;;27.60;;
47539;SDS011;33280;52.152;21.052;2022-11-27T04:35:42;77.27;;;27.00;;
47539;SDS011;33280;52.152;21.052;2022-11-27T04:38:09;76.50;;;26.30;;
47539;SDS011;33280;52.152;21.052;2022-11-27T04:40:36;80.90;;;26.53;;
47539;SDS011;33280;52.152;21.052;2022-11-27T04:43:03;73.93;;;27.23;;
47539;SDS011;33280;52.152;21.052;2022-11-27T04:45:30;76.40;;;26.80;;
47539;SDS011;33280;52.152;21.052;2022-11-27T04:47:57;77.30;;;26.67;;
47539;SDS011;33280;52.152;21.052;2022-11-27T04:50:24;74.50;;;26.07;;
47539;SDS011;33280;52.152;21.052;2022-11-27T04:52:51;74.57;;;26.10;;
47539;SDS011;33280;52.152;21.052;2022-11-27T04:55:18;77.53;;;26.43;;
47539;SDS011;33280;52.152;21.052;2022-11-27T04:57:45;75.67;;;26.10;;
47539;SDS011;33280;52.152;21.052;2022-11-27T05:00:12;71.77;;;24.43;;
47539;SDS011;33280;52.152;21.052;2022-11-27T05:02:39;76.83;;;25.17;;
47539;SDS011;33280;52.152;21.052;2022-11-27T05:05:06;78.97;;;25.53;;
47539;SDS011;33280;52.152;21.052;2022-11-27T05:07:33;68.20;;;25.30;;
47539;SDS011;33280;52.152;21.052;2022-11-27T05:10:00;73.47;;;25.93;;
47539;SDS011;33280;52.152;21.052;2022-11-27T05:12:27;71.03;;;25.33;;
47539;SDS011;33280;52.152;21.052;2022-11-27T05:14:53;73.57;;;26.13;;
47539;SDS011;33280;52.152;21.052;2022-11-27T05:17:20;69.70;;;25.23;;
47539;SDS011;33280;52.152;21.052;2022-11-27T05:19:47;75.47;;;25.33;;
47539;SDS011;33280;52.152;21.052;2022-11-27T05:22:14;81.13;;;26.83;;
47539;SDS011;33280;52.152;21.052;2022-11-27T05:24:41;73.60;;;25.67;;
47539;SDS011;33280;52.152;21.052;2022-11-27T05:27:08;65.10;;;25.60;;
47539;SDS011;33280;52.152;21.052;2022-11-27T05:29:35;69.37;;;24.70;;
47539;SDS011;33280;52.152;21.052;2022-11-27T05:32:02;74.50;;;25.93;;
47539;SDS011;33280;52.152;21.052;2022-11-27T05:34:29;76.10;;;26.40;;
47539;SDS011;33280;52.152;21.052;2022-11-27T05:36:56;79.87;;;26.10;;
47539;SDS011;33280;52.152;21.052;2022-11-27T05:39:23;71.00;;;24.97;;
47539;SDS011;33280;52.152;21.052;2022-11-27T05:41:50;74.87;;;25.30;;
47539;SDS011;33280;52.152;21.052;2022-11-27T05:44:16;66.43;;;25.10;;
47539;SDS011;33280;52.152;21.052;2022-11-27T05:46:43;69.63;;;24.73;;
47539;SDS011;33280;52.152;21.052;2022-11-27T05:49:11;69.53;;;25.83;;
47539;SDS011;33280;52.152;21.052;2022-11-27T05:51:39;72.97;;;25.63;;
47539;SDS011;33280;52.152;21.052;2022-11-27T05:54:09;74.60;;;25.67;;
47539;SDS011;33280;52.152;21.052;2022-11-27T05:56:36;74.83;;;26.57;;
47539;SDS011;33280;52.152;21.052;2022-11-27T05:59:03;71.60;;;25.70;;
47539;SDS011;33280;52.152;21.052;2022-11-27T06:01:32;67.07;;;25.10;;
47539;SDS011;33280;52.152;21.052;2022-11-27T06:03:59;71.37;;;25.53;;
47539;SDS011;33280;52.152;21.052;2022-11-27T06:06:26;71.63;;;25.77;;
47539;SDS011;33280;52.152;21.052;2022-11-27T06:08:53;71.30;;;26.33;;
47539;SDS011;33280;52.152;21.052;2022-11-27T06:11:20;75.90;;;26.10;;
47539;SDS011;33280;52.152;21.052;2022-11-27T06:13:48;70.70;;;26.50;;
47539;SDS011;33280;52.152;21.052;2022-11-27T06:16:19;81.47;;;27.83;;
47539;SDS011;33280;52.152;21.052;2022-11-27T06:18:48;78.73;;;26.30;;
47539;SDS011;33280;52.152;21.052;2022-11-27T06:21:20;72.90;;;25.37;;
47539;SDS011;33280;52.152;21.052;2022-11-27T06:23:47;74.53;;;26.00;;
47539;SDS011;33280;52.152;21.052;2022-11-27T06:26:17;79.93;;;26.47;;
47539;SDS011;33280;52.152;21.052;2022-11-27T06:28:45;72.10;;;26.07;;
47539;SDS011;33280;52.152;21.052;2022-11-27T06:31:14;81.07;;;27.43;;
47539;SDS011;33280;52.152;21.052;2022-11-27T06:33:44;85.77;;;27.47;;
47539;SDS011;33280;52.152;21.052;2022-11-27T06:36:12;72.70;;;26.27;;
47539;SDS011;33280;52.152;21.052;2022-11-27T06:38:39;76.23;;;26.30;;
47539;SDS011;33280;52.152;21.052;2022-11-27T06:41:10;79.73;;;26.90;;
47539;SDS011;33280;52.152;21.052;2022-11-27T06:43:38;73.73;;;25.70;;
47539;SDS011;33280;52.152;21.052;2022-11-27T06:46:06;78.97;;;26.13;;
47539;SDS011;33280;52.152;21.052;2022-11-27T06:48:36;78.40;;;26.77;;
47539;SDS011;33280;52.152;21.052;2022-11-27T06:51:04;76.67;;;26.20;;
47539;SDS011;33280;52.152;21.052;2022-11-27T06:53:33;82.27;;;27.23;;
47539;SDS011;33280;52.152;21.052;2022-11-27T06:56:02;74.83;;;25.77;;
47539;SDS011;33280;52.152;21.052;2022-11-27T06:58:30;80.00;;;27.17;;
47539;SDS011;33280;52.152;21.052;2022-11-27T07:00:57;84.53;;;27.53;;
47539;SDS011;33280;52.152;21.052;2022-11-27T07:03:25;74.33;;;26.63;;
47539;SDS011;33280;52.152;21.052;2022-11-27T07:05:52;77.97;;;27.20;;
47539;SDS011;33280;52.152;21.052;2022-11-27T07:08:19;81.87;;;27.40;;
47539;SDS011;33280;52.152;21.052;2022-11-27T07:10:47;80.43;;;26.30;;
47539;SDS011;33280;52.152;21.052;2022-11-27T07:13:14;75.83;;;26.83;;
47539;SDS011;33280;52.152;21.052;2022-11-27T07:15:41;70.87;;;24.93;;
47539;SDS011;33280;52.152;21.052;2022-11-27T07:18:08;73.53;;;26.63;;
47539;SDS011;33280;52.152;21.052;2022-11-27T07:20:35;74.20;;;25.60;;
47539;SDS011;33280;52.152;21.052;2022-11-27T07:23:02;74.40;;;26.17;;
47539;SDS011;33280;52.152;21.052;2022-11-27T07:25:29;77.80;;;26.23;;
47539;SDS011;33280;52.152;21.052;2022-11-27T07:27:56;73.60;;;26.00;;
47539;SDS011;33280;52.152;21.052;2022-11-27T07:30:23;79.80;;;27.07;;
47539;SDS011;33280;52.152;21.052;2022-11-27T07:32:49;72.03;;;25.83;;
47539;SDS011;33280;52.152;21.052;2022-11-27T07:35:17;75.10;;;26.07;;
47539;SDS011;33280;52.152;21.052;2022-11-27T07:37:43;78.17;;;27.67;;
47539;SDS011;33280;52.152;21.052;2022-11-27T07:40:10;73.20;;;26.80;;
47539;SDS011;33280;52.152;21.052;2022-11-27T07:42:40;74.00;;;27.47;;
47539;SDS011;33280;52.152;21.052;2022-11-27T07:45:07;80.00;;;26.77;;
47539;SDS011;33280;52.152;21.052;2022-11-27T07:47:34;76.33;;;26.47;;
47539;SDS011;33280;52.152;21.052;2022-11-27T07:50:02;74.10;;;25.30;;
47539;SDS011;33280;52.152;21.052;2022-11-27T07:52:30;75.80;;;26.40;;
47539;SDS011;33280;52.152;21.052;2022-11-27T07:55:06;78.47;;;26.43;;
47539;SDS011;33280;52.152;21.052;2022-11-27T07:57:33;78.77;;;27.50;;
47539;SDS011;33280;52.152;21.052;2022-11-27T08:00:01;74.80;;;26.20;;
47539;SDS011;33280;52.152;21.052;2022-11-27T08:02:29;74.07;;;26.93;;
47539;SDS011;33280;52.152;21.052;2022-11-27T08:04:56;77.10;;;26.57;;
47539;SDS011;33280;52.152;21.052;2022-11-27T08:07:26;74.60;;;27.43;;
47539;SDS011;33280;52.152;21.052;2022-11-27T08:09:55;76.70;;;26.30;;
47539;SDS011;33280;52.152;21.052;2022-11-27T08:12:25;82.87;;;28.10;;
47539;SDS011;33280;52.152;21.052;2022-11-27T08:14:52;81.57;;;28.27;;
47539;SDS011;33280;52.152;21.052;2022-11-27T08:17:19;76.00;;;26.43;;
47539;SDS011;33280;52.152;21.052;2022-11-27T08:19:46;81.93;;;28.60;;
47539;SDS011;33280;52.152;21.052;2022-11-27T08:22:13;79.63;;;28.37;;
47539;SDS011;33280;52.152;21.052;2022-11-27T08:24:41;75.17;;;27.00;;
47539;SDS011;33280;52.152;21.052;2022-11-27T08:27:08;80.97;;;29.43;;
47539;SDS011;33280;52.152;21.052;2022-11-27T08:29:36;80.33;;;28.57;;
47539;SDS011;33280;52.152;21.052;2022-11-27T08:32:04;83.20;;;28.17;;
47539;SDS011;33280;52.152;21.052;2022-11-27T08:34:31;92.63;;;28.07;;
47539;SDS011;33280;52.152;21.052;2022-11-27T08:36:58;82.33;;;27.40;;
47539;SDS011;33280;52.152;21.052;2022-11-27T08:39:25;80.13;;;28.07;;
47539;SDS011;33280;52.152;21.052;2022-11-27T08:41:52;80.17;;;28.17;;
47539;SDS011;33280;52.152;21.052;2022-11-27T08:44:19;80.77;;;27.63;;
47539;SDS011;33280;52.152;21.052;2022-11-27T08:46:46;88.37;;;29.60;;
47539;SDS011;33280;52.152;21.052;2022-11-27T08:49:13;82.50;;;27.90;;
47539;SDS011;33280;52.152;21.052;2022-11-27T08:51:40;74.27;;;27.87;;
47539;SDS011;33280;52.152;21.052;2022-11-27T08:54:08;79.07;;;27.57;;
47539;SDS011;33280;52.152;21.052;2022-11-27T08:56:34;83.93;;;27.73;;
47539;SDS011;33280;52.152;21.052;2022-11-27T08:59:01;75.93;;;28.33;;
47539;SDS011;33280;52.152;21.052;2022-11-27T09:01:29;85.63;;;29.50;;
47539;SDS011;33280;52.152;21.052;2022-11-27T09:03:57;83.33;;;28.23;;
47539;SDS011;33280;52.152;21.052;2022-11-27T09:06:27;87.20;;;29.13;;
47539;SDS011;33280;52.152;21.052;2022-11-27T09:08:57;85.90;;;29.37;;
47539;SDS011;33280;52.152;21.052;2022-11-27T09:11:26;74.33;;;26.80;;
47539;SDS011;33280;52.152;21.052;2022-11-27T09:13:54;86.40;;;29.37;;
47539;SDS011;33280;52.152;21.052;2022-11-27T09:16:20;80.80;;;27.97;;
47539;SDS011;33280;52.152;21.052;2022-11-27T09:18:49;77.63;;;28.80;;
47539;SDS011;33280;52.152;21.052;2022-11-27T09:21:18;80.13;;;27.80;;
47539;SDS011;33280;52.152;21.052;2022-11-27T09:23:47;80.37;;;27.77;;
47539;SDS011;33280;52.152;21.052;2022-11-27T09:26:17;76.60;;;28.03;;
47539;SDS011;33280;52.152;21.052;2022-11-27T09:28:44;72.00;;;27.23;;
47539;SDS011;33280;52.152;21.052;2022-11-27T09:31:12;69.77;;;27.13;;
47539;SDS011;33280;52.152;21.052;2022-11-27T09:33:40;73.90;;;28.57;;
47539;SDS011;33280;52.152;21.052;2022-11-27T09:36:09;76.47;;;28.63;;
47539;SDS011;33280;52.152;21.052;2022-11-27T09:38:38;76.90;;;29.13;;
47539;SDS011;33280;52.152;21.052;2022-11-27T09:41:06;71.13;;;28.13;;
47539;SDS011;33280;52.152;21.052;2022-11-27T09:43:42;72.80;;;27.20;;
47539;SDS011;33280;52.152;21.052;2022-11-27T09:46:58;72.57;;;27.63;;
47539;SDS011;33280;52.152;21.052;2022-11-27T09:49:19;73.13;;;28.10;;
47539;SDS011;33280;52.152;21.052;2022-11-27T09:52:11;78.43;;;27.30;;
47539;SDS011;33280;52.152;21.052;2022-11-27T09:57:59;82.33;;;28.87;;
47539;SDS011;33280;52.152;21.052;2022-11-27T10:00:31;76.87;;;28.10;;
47539;SDS011;33280;52.152;21.052;2022-11-27T10:02:58;67.97;;;27.47;;
47539;SDS011;33280;52.152;21.052;2022-11-27T10:05:28;75.90;;;29.73;;
47539;SDS011;33280;52.152;21.052;2022-11-27T10:13:13;75.90;;;28.70;;
47539;SDS011;33280;52.152;21.052;2022-11-27T10:15:50;69.73;;;27.70;;
47539;SDS011;33280;52.152;21.052;2022-11-27T10:21:24;75.03;;;28.43;;
47539;SDS011;33280;52.152;21.052;2022-11-27T10:27:08;71.40;;;28.50;;
47539;SDS011;33280;52.152;21.052;2022-11-27T10:29:50;69.37;;;28.27;;
47539;SDS011;33280;52.152;21.052;2022-11-27T10:32:20;74.70;;;29.03;;
47539;SDS011;33280;52.152;21.052;2022-11-27T10:37:44;69.17;;;28.20;;
47539;SDS011;33280;52.152;21.052;2022-11-27T10:40:18;71.33;;;27.53;;
47539;SDS011;33280;52.152;21.052;2022-11-27T10:45:48;74.57;;;28.43;;
47539;SDS011;33280;52.152;21.052;2022-11-27T10:48:19;70.77;;;28.27;;
47539;SDS011;33280;52.152;21.052;2022-11-27T10:50:47;69.63;;;27.20;;
47539;SDS011;33280;52.152;21.052;2022-11-27T10:53:22;68.70;;;28.17;;
47539;SDS011;33280;52.152;21.052;2022-11-27T10:56:08;69.00;;;26.77;;
47539;SDS011;33280;52.152;21.052;2022-11-27T10:59:00;81.27;;;28.43;;
47539;SDS011;33280;52.152;21.052;2022-11-27T11:01:45;72.13;;;28.03;;
47539;SDS011;33280;52.152;21.052;2022-11-27T11:04:14;75.13;;;28.73;;
47539;SDS011;33280;52.152;21.052;2022-11-27T11:07:14;66.03;;;25.87;;
47539;SDS011;33280;52.152;21.052;2022-11-27T11:09:53;71.00;;;28.00;;
47539;SDS011;33280;52.152;21.052;2022-11-27T11:12:21;65.90;;;26.47;;
47539;SDS011;33280;52.152;21.052;2022-11-27T11:14:53;61.77;;;27.20;;
47539;SDS011;33280;52.152;21.052;2022-11-27T11:20:21;66.73;;;27.33;;
47539;SDS011;33280;52.152;21.052;2022-11-27T11:22:50;60.50;;;26.53;;
47539;SDS011;33280;52.152;21.052;2022-11-27T11:25:18;69.60;;;27.33;;
47539;SDS011;33280;52.152;21.052;2022-11-27T11:27:46;62.50;;;27.13;;
47539;SDS011;33280;52.152;21.052;2022-11-27T11:30:23;60.20;;;25.90;;
47539;SDS011;33280;52.152;21.052;2022-11-27T11:33:00;66.00;;;26.83;;
47539;SDS011;33280;52.152;21.052;2022-11-27T11:35:32;66.63;;;26.03;;
47539;SDS011;33280;52.152;21.052;2022-11-27T11:38:05;67.17;;;25.97;;
47539;SDS011;33280;52.152;21.052;2022-11-27T11:40:40;62.60;;;25.20;;
47539;SDS011;33280;52.152;21.052;2022-11-27T11:43:22;61.23;;;25.97;;
47539;SDS011;33280;52.152;21.052;2022-11-27T11:46:16;63.03;;;26.43;;
47539;SDS011;33280;52.152;21.052;2022-11-27T11:48:51;63.70;;;26.00;;
47539;SDS011;33280;52.152;21.052;2022-11-27T11:51:26;64.50;;;26.40;;
47539;SDS011;33280;52.152;21.052;2022-11-27T11:54:25;61.77;;;25.33;;
47539;SDS011;33280;52.152;21.052;2022-11-27T11:57:38;61.77;;;25.37;;
47539;SDS011;33280;52.152;21.052;2022-11-27T12:00:09;63.17;;;25.73;;
47539;SDS011;33280;52.152;21.052;2022-11-27T12:02:47;64.83;;;25.30;;
47539;SDS011;33280;52.152;21.052;2022-11-27T12:19:03;64.43;;;25.97;;
47539;SDS011;33280;52.152;21.052;2022-11-27T12:24:35;57.43;;;25.60;;
47539;SDS011;33280;52.152;21.052;2022-11-27T12:32:53;59.93;;;24.53;;
47539;SDS011;33280;52.152;21.052;2022-11-27T12:35:33;58.13;;;24.77;;
47539;SDS011;33280;52.152;21.052;2022-11-27T12:43:57;58.27;;;24.80;;
47539;SDS011;33280;52.152;21.052;2022-11-27T12:49:24;61.47;;;24.93;;
47539;SDS011;33280;52.152;21.052;2022-11-27T13:00:34;58.17;;;24.83;;
47539;SDS011;33280;52.152;21.052;2022-11-27T13:06:17;53.93;;;22.90;;
47539;SDS011;33280;52.152;21.052;2022-11-27T13:08:54;54.87;;;24.17;;
47539;SDS011;33280;52.152;21.052;2022-11-27T13:11:30;50.00;;;22.90;;
47539;SDS011;33280;52.152;21.052;2022-11-27T13:14:19;53.67;;;23.07;;
47539;SDS011;33280;52.152;21.052;2022-11-27T13:16:51;51.70;;;23.77;;
47539;SDS011;33280;52.152;21.052;2022-11-27T13:19:32;59.07;;;25.00;;
47539;SDS011;33280;52.152;21.052;2022-11-27T13:22:07;54.13;;;24.00;;
47539;SDS011;33280;52.152;21.052;2022-11-27T13:24:37;57.23;;;24.07;;
47539;SDS011;33280;52.152;21.052;2022-11-27T13:27:15;54.93;;;23.57;;
47539;SDS011;33280;52.152;21.052;2022-11-27T13:29:49;54.33;;;23.47;;
47539;SDS011;33280;52.152;21.052;2022-11-27T13:32:27;56.83;;;24.13;;
47539;SDS011;33280;52.152;21.052;2022-11-27T13:34:59;56.60;;;24.47;;
47539;SDS011;33280;52.152;21.052;2022-11-27T13:37:38;65.87;;;24.40;;
47539;SDS011;33280;52.152;21.052;2022-11-27T13:42:43;52.13;;;23.00;;
47539;SDS011;33280;52.152;21.052;2022-11-27T13:45:18;55.70;;;25.07;;
47539;SDS011;33280;52.152;21.052;2022-11-27T13:47:55;51.97;;;23.23;;
47539;SDS011;33280;52.152;21.052;2022-11-27T13:50:24;56.97;;;25.03;;
47539;SDS011;33280;52.152;21.052;2022-11-27T13:53:04;59.20;;;24.07;;
47539;SDS011;33280;52.152;21.052;2022-11-27T13:55:33;55.83;;;24.70;;
47539;SDS011;33280;52.152;21.052;2022-11-27T13:58:02;56.47;;;24.57;;
47539;SDS011;33280;52.152;21.052;2022-11-27T14:03:00;52.30;;;24.37;;
47539;SDS011;33280;52.152;21.052;2022-11-27T14:05:38;57.67;;;24.63;;
47539;SDS011;33280;52.152;21.052;2022-11-27T14:08:26;53.93;;;23.60;;
47539;SDS011;33280;52.152;21.052;2022-11-27T14:11:07;60.03;;;23.67;;
47539;SDS011;33280;52.152;21.052;2022-11-27T14:13:44;86.27;;;27.07;;
47539;SDS011;33280;52.152;21.052;2022-11-27T14:16:33;55.90;;;25.00;;
47539;SDS011;33280;52.152;21.052;2022-11-27T14:22:00;56.10;;;24.23;;
47539;SDS011;33280;52.152;21.052;2022-11-27T14:24:39;53.47;;;24.47;;
47539;SDS011;33280;52.152;21.052;2022-11-27T14:27:19;57.77;;;24.30;;
47539;SDS011;33280;52.152;21.052;2022-11-27T14:29:49;54.40;;;24.13;;
47539;SDS011;33280;52.152;21.052;2022-11-27T14:32:19;50.77;;;24.17;;
47539;SDS011;33280;52.152;21.052;2022-11-27T14:34:46;58.77;;;25.13;;
47539;SDS011;33280;52.152;21.052;2022-11-27T14:37:22;56.97;;;24.77;;
47539;SDS011;33280;52.152;21.052;2022-11-27T14:39:51;59.73;;;25.83;;
47539;SDS011;33280;52.152;21.052;2022-11-27T14:42:19;57.37;;;24.50;;
47539;SDS011;33280;52.152;21.052;2022-11-27T14:45:06;64.73;;;25.30;;
47539;SDS011;33280;52.152;21.052;2022-11-27T14:47:41;59.10;;;24.10;;
47539;SDS011;33280;52.152;21.052;2022-11-27T14:50:15;58.50;;;25.57;;
47539;SDS011;33280;52.152;21.052;2022-11-27T14:52:43;59.33;;;25.97;;
47539;SDS011;33280;52.152;21.052;2022-11-27T14:55:25;57.20;;;24.83;;
47539;SDS011;33280;52.152;21.052;2022-11-27T14:58:00;54.03;;;25.43;;
47539;SDS011;33280;52.152;21.052;2022-11-27T15:00:31;61.03;;;25.13;;
47539;SDS011;33280;52.152;21.052;2022-11-27T15:06:43;57.30;;;25.63;;
47539;SDS011;33280;52.152;21.052;2022-11-27T15:09:22;55.80;;;24.07;;
47539;SDS011;33280;52.152;21.052;2022-11-27T15:11:59;57.33;;;24.40;;
47539;SDS011;33280;52.152;21.052;2022-11-27T15:14:37;61.30;;;26.23;;
47539;SDS011;33280;52.152;21.052;2022-11-27T15:17:13;60.37;;;26.03;;
47539;SDS011;33280;52.152;21.052;2022-11-27T15:19:44;57.37;;;25.23;;
47539;SDS011;33280;52.152;21.052;2022-11-27T15:22:16;64.27;;;25.50;;
47539;SDS011;33280;52.152;21.052;2022-11-27T15:24:44;57.60;;;23.97;;
47539;SDS011;33280;52.152;21.052;2022-11-27T15:32:20;58.73;;;26.13;;
47539;SDS011;33280;52.152;21.052;2022-11-27T15:34:50;59.07;;;25.80;;
47539;SDS011;33280;52.152;21.052;2022-11-27T15:39:59;63.17;;;26.40;;
47539;SDS011;33280;52.152;21.052;2022-11-27T15:42:28;60.00;;;25.27;;
47539;SDS011;33280;52.152;21.052;2022-11-27T15:44:56;60.43;;;26.70;;
47539;SDS011;33280;52.152;21.052;2022-11-27T15:47:27;69.67;;;27.20;;
47539;SDS011;33280;52.152;21.052;2022-11-27T15:49:57;60.10;;;26.03;;
47539;SDS011;33280;52.152;21.052;2022-11-27T15:52:25;60.63;;;26.10;;
47539;SDS011;33280;52.152;21.052;2022-11-27T15:54:53;60.13;;;27.03;;
47539;SDS011;33280;52.152;21.052;2022-11-27T15:57:23;58.67;;;26.27;;
47539;SDS011;33280;52.152;21.052;2022-11-27T15:59:51;60.30;;;25.77;;
47539;SDS011;33280;52.152;21.052;2022-11-27T16:02:19;62.70;;;25.77;;
47539;SDS011;33280;52.152;21.052;2022-11-27T16:04:46;54.87;;;25.23;;
47539;SDS011;33280;52.152;21.052;2022-11-27T16:07:16;62.50;;;26.80;;
47539;SDS011;33280;52.152;21.052;2022-11-27T16:09:43;59.90;;;27.13;;
47539;SDS011;33280;52.152;21.052;2022-11-27T16:12:12;64.90;;;27.93;;
47539;SDS011;33280;52.152;21.052;2022-11-27T16:14:41;59.83;;;27.97;;
47539;SDS011;33280;52.152;21.052;2022-11-27T16:17:11;71.70;;;29.57;;
47539;SDS011;33280;52.152;21.052;2022-11-27T16:19:52;76.93;;;32.33;;
47539;SDS011;33280;52.152;21.052;2022-11-27T16:22:20;76.07;;;32.87;;
47539;SDS011;33280;52.152;21.052;2022-11-27T16:24:47;67.87;;;30.90;;
47539;SDS011;33280;52.152;21.052;2022-11-27T16:27:17;66.40;;;31.53;;
47539;SDS011;33280;52.152;21.052;2022-11-27T16:29:44;80.87;;;33.67;;